x

Smith Island, Wa (sisw1) Weather Station

6:00 - Sat 25th Jun 2016 All times are PDT. -7 hours from GMT.

  • Wind
    14mph
  • Luft Temp 56°f
  • Sea Pressure 1024.3mb
  • Smith Island, Wa
  • Smith Island, Wa

More Historic Weather Station data

Upgrade to MSW Pro to gain access to the past 30 days of data for over 8000 Wavebouys and Weather Stations around the globe.

Join Pro

Comparision Forecast

View Surf forecast
   
Sa 06/25 6:00 14
mph
1024.3mb 56f
5:00 10 11 mph 1024.7mb 57f
4:00 7
mph
1025.3mb 59f
3:00 6 7 mph 1025.6mb 59f
2:00 5 6 mph 1025.7mb 60f
1:00 6 7 mph 1025.9mb 60f
12:00 3 5 mph 1025.9mb 59f
11:00 7 8 mph 1025.8mb 58f
10:00 5 6 mph 1025.8mb 55f
9:00 9 10 mph 1026mb 55f
8:00 13 15 mph 1025.9mb 53f
7:00 11 13 mph 1025.7mb 53f
6:00 13
mph
1025.4mb 52f
5:00 11
mph
1025.3mb 53f
4:00 14 16 mph 1025.2mb 53f
3:00 14 18 mph 1025.3mb 53f
2:00 16 20 mph 1025.1mb 53f
1:00 18 24 mph 1025.1mb 54f
12:00 20 23 mph 1025mb 54f
Fr 06/24 11:00 15 20 mph 1024.9mb 54f
10:00 16 17 mph 1025mb 54f
9:00 17 20 mph 1024.4mb 55f
8:00 18 22 mph 1024.2mb 55f
7:00 17 24 mph 1024.2mb 55f
6:00 18 23 mph 1024mb 55f
5:00 23 24 mph 1024.1mb 54f
4:00 21 23 mph 1024.1mb 56f
3:00 20 21 mph 1023.7mb 58f
2:00 13 14 mph 1023.4mb 57f
1:00 11 14 mph 1022.9mb 58f
12:00 13 15 mph 1022.3mb 58f
11:00 13 14 mph 1022mb 56f
10:00 11 13 mph 1021.6mb 55f
9:00 10 13 mph 1021.1mb 53f
8:00 14
mph
1020.5mb 52f
7:00 10 11 mph 1020.2mb 52f
6:00 14
mph
1019.9mb 52f
5:00 15 17 mph 1019.6mb 52f
4:00 13 15 mph 1019.2mb 52f
3:00 9 11 mph 1018.8mb 51f
2:00 15 18 mph 1018.1mb 53f
1:00 20 23 mph 1017.8mb 54f
12:00 20 23 mph 1018.1mb 54f
Do 06/23 11:00 25 28 mph 1017.8mb 54f
10:00 21 24 mph 1017.7mb 54f
9:00 18 21 mph 1017.6mb 54f
8:00 14 16 mph 1017.1mb 53f
7:00 14 17 mph 1016.9mb 53f
6:00 18 22 mph 1016.7mb 54f
5:00 20 22 mph 1016.2mb 53f
4:00 14 15 mph 1016.6mb 55f
3:00 6
mph
1016.6mb 57f
2:00 9 10 mph 1016.6mb 55f
1:00 6 8 mph 1016.1mb 58f
12:00 6 7 mph 1015.9mb 55f
11:00 6 7 mph 1015.2mb 58f
10:00 3 5 mph 1014.8mb 55f
9:00 17 18 mph 1014.2mb 54f
8:00 21 23 mph 1013.6mb 54f
7:00 22 24 mph 1013.5mb 54f
6:00 23 25 mph 1013.4mb 55f
5:00 15 16 mph 1013.5mb 53f
4:00 8 9 mph 1013.7mb 52f
3:00 5 6 mph 1014.4mb 52f
2:00 5 6 mph 1014.5mb 51f
1:00 7
mph
1014.8mb 52f
12:00 7 10 mph 1014.8mb 52f
Mi 06/22 11:00 7 8 mph 1014.4mb 52f
10:00 13 16 mph 1014.6mb 52f
9:00 16 20 mph 1014.4mb 53f
8:00 20 21 mph 1014.9mb 54f
7:00 16 20 mph 1015.3mb 55f
6:00 14 18 mph 1016mb 55f
5:00 5 7 mph 1016.7mb 56f
4:00 7 8 mph 1017.2mb 57f
3:00 6 7 mph 1017.8mb 60f
2:00 5 6 mph 1018.3mb 59f
1:00 7 8 mph 1018.8mb 61f
12:00 7 8 mph 1019.2mb 58f
11:00 6 8 mph 1019.4mb 58f
10:00 9
mph
1019.5mb 59f
9:00 10
mph
1019.4mb 56f
8:00 8 10 mph 1019.4mb 55f
7:00 7
mph
1019.7mb 52f
6:00 8
mph
1019.5mb 52f
5:00 11 14 mph 1019.6mb 52f
4:00 14 18 mph 1019.7mb 53f
3:00 14 15 mph 1019.7mb 53f